sensor_id;sensor_type;location;lat;lon;timestamp;pressure;altitude;pressure_sealevel;temperature;humidity
12178;BME280;6152;48.728;9.256;2023-04-29T00:00:15;96765.06;;;11.68;100.00
12178;BME280;6152;48.728;9.256;2023-04-29T00:02:41;96764.31;;;11.65;100.00
12178;BME280;6152;48.728;9.256;2023-04-29T00:05:08;96767.03;;;11.64;100.00
12178;BME280;6152;48.728;9.256;2023-04-29T00:07:34;96761.72;;;11.65;100.00
12178;BME280;6152;48.728;9.256;2023-04-29T00:10:01;96761.00;;;11.63;100.00
12178;BME280;6152;48.728;9.256;2023-04-29T00:12:27;96758.38;;;11.63;100.00
12178;BME280;6152;48.728;9.256;2023-04-29T00:14:55;96762.75;;;11.63;100.00
12178;BME280;6152;48.728;9.256;2023-04-29T00:17:21;96755.78;;;11.63;100.00
12178;BME280;6152;48.728;9.256;2023-04-29T00:19:48;96756.00;;;11.60;100.00
12178;BME280;6152;48.728;9.256;2023-04-29T00:22:15;96759.31;;;11.62;100.00
12178;BME280;6152;48.728;9.256;2023-04-29T00:24:42;96757.69;;;11.61;100.00
12178;BME280;6152;48.728;9.256;2023-04-29T00:27:08;96761.22;;;11.60;100.00
12178;BME280;6152;48.728;9.256;2023-04-29T00:29:36;96756.00;;;11.60;100.00
12178;BME280;6152;48.728;9.256;2023-04-29T00:32:03;96755.78;;;11.63;100.00
12178;BME280;6152;48.728;9.256;2023-04-29T00:34:29;96760.28;;;11.61;100.00
12178;BME280;6152;48.728;9.256;2023-04-29T00:36:56;96758.59;;;11.60;100.00
12178;BME280;6152;48.728;9.256;2023-04-29T00:39:22;96758.59;;;11.60;100.00
12178;BME280;6152;48.728;9.256;2023-04-29T00:41:48;96758.81;;;11.57;100.00
12178;BME280;6152;48.728;9.256;2023-04-29T00:44:14;96755.06;;;11.61;100.00
12178;BME280;6152;48.728;9.256;2023-04-29T00:46:40;96757.69;;;11.61;100.00
12178;BME280;6152;48.728;9.256;2023-04-29T00:49:06;96757.88;;;11.58;100.00
12178;BME280;6152;48.728;9.256;2023-04-29T00:51:33;96765.81;;;11.57;100.00
12178;BME280;6152;48.728;9.256;2023-04-29T00:54:02;96767.56;;;11.56;100.00
12178;BME280;6152;48.728;9.256;2023-04-29T00:56:31;96770.41;;;11.53;100.00
12178;BME280;6152;48.728;9.256;2023-04-29T00:58:59;96767.56;;;11.56;100.00
12178;BME280;6152;48.728;9.256;2023-04-29T01:01:27;96771.09;;;11.55;100.00
12178;BME280;6152;48.728;9.256;2023-04-29T01:03:54;96774.78;;;11.53;100.00
12178;BME280;6152;48.728;9.256;2023-04-29T01:09:26;96773.31;;;11.49;100.00
12178;BME280;6152;48.728;9.256;2023-04-29T01:12:05;96772.69;;;11.45;100.00
12178;BME280;6152;48.728;9.256;2023-04-29T01:14:33;96772.69;;;11.45;100.00
12178;BME280;6152;48.728;9.256;2023-04-29T01:17:09;96771.22;;;11.41;100.00
12178;BME280;6152;48.728;9.256;2023-04-29T01:22:11;96773.97;;;11.40;100.00
12178;BME280;6152;48.728;9.256;2023-04-29T01:24:39;96778.34;;;11.39;100.00
12178;BME280;6152;48.728;9.256;2023-04-29T01:30:21;96772.50;;;11.36;100.00
12178;BME280;6152;48.728;9.256;2023-04-29T01:33:22;96772.41;;;11.37;100.00
12178;BME280;6152;48.728;9.256;2023-04-29T01:38:52;96778.56;;;11.36;100.00
12178;BME280;6152;48.728;9.256;2023-04-29T01:41:41;96776.25;;;11.32;100.00
12178;BME280;6152;48.728;9.256;2023-04-29T01:44:13;96775.63;;;11.28;100.00
12178;BME280;6152;48.728;9.256;2023-04-29T01:46:40;96768.97;;;11.24;100.00
12178;BME280;6152;48.728;9.256;2023-04-29T01:49:07;96775.13;;;11.23;100.00
12178;BME280;6152;48.728;9.256;2023-04-29T01:51:34;96775.34;;;11.20;100.00
12178;BME280;6152;48.728;9.256;2023-04-29T01:54:00;96778.13;;;11.17;100.00
12178;BME280;6152;48.728;9.256;2023-04-29T01:56:26;96771.50;;;11.13;100.00
12178;BME280;6152;48.728;9.256;2023-04-29T01:58:52;96763.97;;;11.08;100.00
12178;BME280;6152;48.728;9.256;2023-04-29T02:01:18;96771.25;;;11.03;100.00
12178;BME280;6152;48.728;9.256;2023-04-29T02:03:44;96765.44;;;11.00;100.00
12178;BME280;6152;48.728;9.256;2023-04-29T02:06:11;96764.00;;;10.96;100.00
12178;BME280;6152;48.728;9.256;2023-04-29T02:08:37;96766.81;;;10.93;100.00
12178;BME280;6152;48.728;9.256;2023-04-29T02:11:03;96768.38;;;10.95;100.00
12178;BME280;6152;48.728;9.256;2023-04-29T02:13:29;96763.25;;;10.94;100.00
12178;BME280;6152;48.728;9.256;2023-04-29T02:15:55;96769.41;;;10.93;100.00
12178;BME280;6152;48.728;9.256;2023-04-29T02:18:21;96766.06;;;10.91;100.00
12178;BME280;6152;48.728;9.256;2023-04-29T02:20:47;96770.63;;;10.87;100.00
12178;BME280;6152;48.728;9.256;2023-04-29T02:23:15;96775.22;;;10.84;100.00
12178;BME280;6152;48.728;9.256;2023-04-29T02:25:42;96772.09;;;10.79;100.00
12178;BME280;6152;48.728;9.256;2023-04-29T02:28:08;96770.63;;;10.75;100.00
12178;BME280;6152;48.728;9.256;2023-04-29T02:30:34;96775.22;;;10.71;100.00
12178;BME280;6152;48.728;9.256;2023-04-29T02:33:00;96767.50;;;10.70;100.00
12178;BME280;6152;48.728;9.256;2023-04-29T02:35:26;96766.03;;;10.65;100.00
12178;BME280;6152;48.728;9.256;2023-04-29T02:37:53;96766.22;;;10.62;100.00
12178;BME280;6152;48.728;9.256;2023-04-29T02:40:19;96763.13;;;10.57;100.00
12178;BME280;6152;48.728;9.256;2023-04-29T02:42:45;96772.06;;;10.53;100.00
12178;BME280;6152;48.728;9.256;2023-04-29T02:45:11;96773.94;;;10.51;100.00
12178;BME280;6152;48.728;9.256;2023-04-29T02:47:38;96774.84;;;10.50;100.00
12178;BME280;6152;48.728;9.256;2023-04-29T02:50:04;96764.53;;;10.49;100.00
12178;BME280;6152;48.728;9.256;2023-04-29T02:52:31;96772.25;;;10.50;100.00
12178;BME280;6152;48.728;9.256;2023-04-29T02:54:57;96772.25;;;10.50;100.00
12178;BME280;6152;48.728;9.256;2023-04-29T02:57:23;96773.31;;;10.48;100.00
12178;BME280;6152;48.728;9.256;2023-04-29T02:59:49;96773.47;;;10.45;100.00
12178;BME280;6152;48.728;9.256;2023-04-29T03:02:16;96779.72;;;10.42;100.00
12178;BME280;6152;48.728;9.256;2023-04-29T03:04:42;96780.00;;;10.38;100.00
12178;BME280;6152;48.728;9.256;2023-04-29T03:07:08;96779.41;;;10.34;100.00
12178;BME280;6152;48.728;9.256;2023-04-29T03:09:34;96782.38;;;10.28;100.00
12178;BME280;6152;48.728;9.256;2023-04-29T03:12:00;96783.63;;;10.23;100.00
12178;BME280;6152;48.728;9.256;2023-04-29T03:14:27;96781.31;;;10.18;100.00
12178;BME280;6152;48.728;9.256;2023-04-29T03:16:54;96785.03;;;10.14;100.00
12178;BME280;6152;48.728;9.256;2023-04-29T03:19:21;96780.19;;;10.08;100.00
12178;BME280;6152;48.728;9.256;2023-04-29T03:21:47;96779.56;;;10.04;100.00
12178;BME280;6152;48.728;9.256;2023-04-29T03:24:13;96786.00;;;9.99;100.00
12178;BME280;6152;48.728;9.256;2023-04-29T03:26:40;96779.41;;;9.93;100.00
12178;BME280;6152;48.728;9.256;2023-04-29T03:29:08;96774.50;;;9.89;100.00
12178;BME280;6152;48.728;9.256;2023-04-29T03:31:34;96777.31;;;9.86;100.00
12178;BME280;6152;48.728;9.256;2023-04-29T03:34:00;96786.22;;;9.82;100.00
12178;BME280;6152;48.728;9.256;2023-04-29T03:36:26;96780.25;;;9.80;100.00
12178;BME280;6152;48.728;9.256;2023-04-29T03:38:52;96771.75;;;9.78;100.00
12178;BME280;6152;48.728;9.256;2023-04-29T03:41:19;96765.78;;;9.76;100.00
12178;BME280;6152;48.728;9.256;2023-04-29T03:43:45;96774.63;;;9.73;100.00
12178;BME280;6152;48.728;9.256;2023-04-29T03:46:11;96767.13;;;9.69;100.00
12178;BME280;6152;48.728;9.256;2023-04-29T03:48:37;96768.97;;;9.67;100.00
12178;BME280;6152;48.728;9.256;2023-04-29T03:51:03;96765.66;;;9.64;100.00
12178;BME280;6152;48.728;9.256;2023-04-29T03:53:30;96768.34;;;9.63;100.00
12178;BME280;6152;48.728;9.256;2023-04-29T03:55:57;96769.38;;;9.60;100.00
12178;BME280;6152;48.728;9.256;2023-04-29T03:58:24;96766.97;;;9.57;100.00
12178;BME280;6152;48.728;9.256;2023-04-29T04:00:50;96764.56;;;9.54;100.00
12178;BME280;6152;48.728;9.256;2023-04-29T04:03:16;96772.56;;;9.51;100.00
12178;BME280;6152;48.728;9.256;2023-04-29T04:05:42;96767.63;;;9.47;100.00
12178;BME280;6152;48.728;9.256;2023-04-29T04:08:08;96771.25;;;9.44;100.00
12178;BME280;6152;48.728;9.256;2023-04-29T04:10:35;96774.00;;;9.41;100.00
12178;BME280;6152;48.728;9.256;2023-04-29T04:13:01;96775.88;;;9.39;100.00
12178;BME280;6152;48.728;9.256;2023-04-29T04:15:27;96780.34;;;9.37;100.00
12178;BME280;6152;48.728;9.256;2023-04-29T04:17:53;96782.19;;;9.35;100.00
12178;BME280;6152;48.728;9.256;2023-04-29T04:20:20;96787.50;;;9.34;100.00
12178;BME280;6152;48.728;9.256;2023-04-29T04:22:46;96793.53;;;9.34;100.00
12178;BME280;6152;48.728;9.256;2023-04-29T04:25:12;96795.34;;;9.32;100.00
12178;BME280;6152;48.728;9.256;2023-04-29T04:27:38;96800.56;;;9.32;100.00
12178;BME280;6152;48.728;9.256;2023-04-29T04:30:04;96808.34;;;9.32;100.00
12178;BME280;6152;48.728;9.256;2023-04-29T04:32:30;96810.88;;;9.34;100.00
12178;BME280;6152;48.728;9.256;2023-04-29T04:34:56;96808.25;;;9.34;100.00
12178;BME280;6152;48.728;9.256;2023-04-29T04:37:23;96814.28;;;9.34;100.00
12178;BME280;6152;48.728;9.256;2023-04-29T04:39:49;96814.09;;;9.37;100.00
12178;BME280;6152;48.728;9.256;2023-04-29T04:42:15;96822.63;;;9.39;100.00
12178;BME280;6152;48.728;9.256;2023-04-29T04:44:41;96833.59;;;9.44;100.00
12178;BME280;6152;48.728;9.256;2023-04-29T04:47:07;96827.25;;;9.48;100.00
12178;BME280;6152;48.728;9.256;2023-04-29T04:49:34;96832.38;;;9.50;100.00
12178;BME280;6152;48.728;9.256;2023-04-29T04:52:00;96833.94;;;9.52;100.00
12178;BME280;6152;48.728;9.256;2023-04-29T04:54:26;96836.44;;;9.54;100.00
12178;BME280;6152;48.728;9.256;2023-04-29T04:56:52;96835.50;;;9.55;100.00
12178;BME280;6152;48.728;9.256;2023-04-29T04:59:18;96837.09;;;9.57;100.00
12178;BME280;6152;48.728;9.256;2023-04-29T05:01:44;96847.31;;;9.60;100.00
12178;BME280;6152;48.728;9.256;2023-04-29T05:04:11;96846.09;;;9.66;100.00
12178;BME280;6152;48.728;9.256;2023-04-29T05:06:37;96843.94;;;9.73;100.00
12178;BME280;6152;48.728;9.256;2023-04-29T05:09:03;96843.47;;;9.80;100.00
12178;BME280;6152;48.728;9.256;2023-04-29T05:11:29;96852.69;;;9.86;100.00
12178;BME280;6152;48.728;9.256;2023-04-29T05:13:55;96857.50;;;9.92;100.00
12178;BME280;6152;48.728;9.256;2023-04-29T05:16:21;96865.72;;;9.98;100.00
12178;BME280;6152;48.728;9.256;2023-04-29T05:18:47;96860.16;;;10.04;100.00
12178;BME280;6152;48.728;9.256;2023-04-29T05:21:14;96862.28;;;10.12;100.00
12178;BME280;6152;48.728;9.256;2023-04-29T05:23:40;96872.13;;;10.21;100.00
12178;BME280;6152;48.728;9.256;2023-04-29T05:26:06;96879.16;;;10.33;100.00
12178;BME280;6152;48.728;9.256;2023-04-29T05:28:32;96883.50;;;10.47;100.00
12178;BME280;6152;48.728;9.256;2023-04-29T05:30:59;96877.84;;;10.67;100.00
12178;BME280;6152;48.728;9.256;2023-04-29T05:33:25;96874.97;;;10.84;100.00
12178;BME280;6152;48.728;9.256;2023-04-29T05:35:51;96871.03;;;11.04;100.00
12178;BME280;6152;48.728;9.256;2023-04-29T05:38:17;96881.72;;;11.26;100.00
12178;BME280;6152;48.728;9.256;2023-04-29T05:40:43;96882.84;;;11.35;100.00
12178;BME280;6152;48.728;9.256;2023-04-29T05:43:09;96880.28;;;11.47;100.00
12178;BME280;6152;48.728;9.256;2023-04-29T05:45:36;96889.84;;;11.59;100.00
12178;BME280;6152;48.728;9.256;2023-04-29T05:48:02;96900.13;;;11.75;100.00
12178;BME280;6152;48.728;9.256;2023-04-29T05:50:28;96905.63;;;11.83;100.00
12178;BME280;6152;48.728;9.256;2023-04-29T05:52:54;96911.38;;;11.88;100.00
12178;BME280;6152;48.728;9.256;2023-04-29T05:55:21;96916.44;;;11.90;100.00
12178;BME280;6152;48.728;9.256;2023-04-29T05:57:47;96919.16;;;12.01;100.00
12178;BME280;6152;48.728;9.256;2023-04-29T06:00:13;96926.56;;;12.07;100.00
12178;BME280;6152;48.728;9.256;2023-04-29T06:02:40;96926.06;;;12.02;100.00
12178;BME280;6152;48.728;9.256;2023-04-29T06:05:08;96924.47;;;12.12;100.00
12178;BME280;6152;48.728;9.256;2023-04-29T06:07:35;96932.78;;;12.17;100.00
12178;BME280;6152;48.728;9.256;2023-04-29T06:10:01;96931.50;;;12.35;100.00
12178;BME280;6152;48.728;9.256;2023-04-29T06:12:27;96938.66;;;12.57;100.00
12178;BME280;6152;48.728;9.256;2023-04-29T06:14:54;96947.34;;;12.57;100.00
12178;BME280;6152;48.728;9.256;2023-04-29T06:17:20;96945.22;;;12.62;100.00
12178;BME280;6152;48.728;9.256;2023-04-29T06:19:46;96956.19;;;12.68;100.00
12178;BME280;6152;48.728;9.256;2023-04-29T06:22:12;96961.03;;;12.85;100.00
12178;BME280;6152;48.728;9.256;2023-04-29T06:24:38;96964.56;;;13.07;100.00
12178;BME280;6152;48.728;9.256;2023-04-29T06:27:04;96961.50;;;13.26;100.00
12178;BME280;6152;48.728;9.256;2023-04-29T06:29:30;96960.34;;;13.41;100.00
12178;BME280;6152;48.728;9.256;2023-04-29T06:31:57;96958.50;;;13.54;100.00
12178;BME280;6152;48.728;9.256;2023-04-29T06:34:23;96972.94;;;13.36;100.00
12178;BME280;6152;48.728;9.256;2023-04-29T06:36:49;96974.16;;;13.43;100.00
12178;BME280;6152;48.728;9.256;2023-04-29T06:39:15;96979.75;;;13.50;100.00
12178;BME280;6152;48.728;9.256;2023-04-29T06:41:41;96974.91;;;13.56;100.00
12178;BME280;6152;48.728;9.256;2023-04-29T06:44:08;96978.69;;;13.52;100.00
12178;BME280;6152;48.728;9.256;2023-04-29T06:46:34;96982.81;;;13.44;100.00
12178;BME280;6152;48.728;9.256;2023-04-29T06:49:00;96982.09;;;13.42;100.00
12178;BME280;6152;48.728;9.256;2023-04-29T06:51:26;96983.16;;;13.39;100.00
12178;BME280;6152;48.728;9.256;2023-04-29T06:53:53;96995.47;;;13.26;100.00
12178;BME280;6152;48.728;9.256;2023-04-29T06:56:20;96995.63;;;13.12;100.00
12178;BME280;6152;48.728;9.256;2023-04-29T06:58:46;96984.72;;;13.18;100.00
12178;BME280;6152;48.728;9.256;2023-04-29T07:01:12;96989.13;;;13.18;100.00
12178;BME280;6152;48.728;9.256;2023-04-29T07:03:39;96991.41;;;13.22;100.00
12178;BME280;6152;48.728;9.256;2023-04-29T07:06:05;96996.16;;;13.28;100.00
12178;BME280;6152;48.728;9.256;2023-04-29T07:08:31;96994.06;;;13.33;100.00
12178;BME280;6152;48.728;9.256;2023-04-29T07:10:58;96996.94;;;13.41;100.00
12178;BME280;6152;48.728;9.256;2023-04-29T07:13:24;96996.75;;;13.44;100.00
12178;BME280;6152;48.728;9.256;2023-04-29T07:15:51;97004.00;;;13.52;100.00
12178;BME280;6152;48.728;9.256;2023-04-29T07:18:17;97009.59;;;13.58;100.00
12178;BME280;6152;48.728;9.256;2023-04-29T07:20:43;97010.81;;;13.65;100.00
12178;BME280;6152;48.728;9.256;2023-04-29T07:23:11;97008.56;;;13.61;100.00
12178;BME280;6152;48.728;9.256;2023-04-29T07:25:37;97014.63;;;13.61;100.00
12178;BME280;6152;48.728;9.256;2023-04-29T07:28:03;97014.38;;;13.64;100.00
12178;BME280;6152;48.728;9.256;2023-04-29T07:30:29;97020.47;;;13.76;100.00
12178;BME280;6152;48.728;9.256;2023-04-29T07:32:55;97016.00;;;13.89;100.00
12178;BME280;6152;48.728;9.256;2023-04-29T07:35:22;97014.81;;;13.93;100.00
12178;BME280;6152;48.728;9.256;2023-04-29T07:37:48;97023.06;;;14.11;100.00
12178;BME280;6152;48.728;9.256;2023-04-29T07:40:15;97024.00;;;14.21;100.00
12178;BME280;6152;48.728;9.256;2023-04-29T07:42:41;97019.50;;;14.23;100.00
12178;BME280;6152;48.728;9.256;2023-04-29T07:45:07;97020.78;;;14.17;100.00
12178;BME280;6152;48.728;9.256;2023-04-29T07:47:34;97019.97;;;14.28;100.00
12178;BME280;6152;48.728;9.256;2023-04-29T07:50:00;97028.13;;;14.47;100.00
12178;BME280;6152;48.728;9.256;2023-04-29T07:52:26;97022.50;;;14.74;100.00
12178;BME280;6152;48.728;9.256;2023-04-29T07:54:53;97035.59;;;14.85;100.00
12178;BME280;6152;48.728;9.256;2023-04-29T07:57:21;97025.94;;;14.97;100.00
12178;BME280;6152;48.728;9.256;2023-04-29T07:59:52;97036.91;;;14.91;100.00
12178;BME280;6152;48.728;9.256;2023-04-29T08:02:18;97031.66;;;14.80;100.00
12178;BME280;6152;48.728;9.256;2023-04-29T08:04:45;97035.72;;;14.73;100.00
12178;BME280;6152;48.728;9.256;2023-04-29T08:07:11;97038.34;;;14.84;100.00
12178;BME280;6152;48.728;9.256;2023-04-29T08:09:37;97044.28;;;14.97;100.00
12178;BME280;6152;48.728;9.256;2023-04-29T08:12:04;97044.63;;;15.03;100.00
12178;BME280;6152;48.728;9.256;2023-04-29T08:14:30;97041.88;;;15.05;100.00
12178;BME280;6152;48.728;9.256;2023-04-29T08:16:56;97044.41;;;15.06;100.00
12178;BME280;6152;48.728;9.256;2023-04-29T08:19:22;97044.16;;;14.87;100.00
12178;BME280;6152;48.728;9.256;2023-04-29T08:21:48;97051.19;;;14.98;100.00
12178;BME280;6152;48.728;9.256;2023-04-29T08:24:14;97044.50;;;14.94;100.00
12178;BME280;6152;48.728;9.256;2023-04-29T08:26:41;97052.38;;;15.05;100.00
12178;BME280;6152;48.728;9.256;2023-04-29T08:29:07;97047.72;;;15.08;100.00
12178;BME280;6152;48.728;9.256;2023-04-29T08:31:33;97058.19;;;15.20;100.00
12178;BME280;6152;48.728;9.256;2023-04-29T08:33:59;97059.03;;;15.20;100.00
12178;BME280;6152;48.728;9.256;2023-04-29T08:36:25;97052.81;;;15.21;100.00
12178;BME280;6152;48.728;9.256;2023-04-29T08:38:53;97057.22;;;15.21;100.00
12178;BME280;6152;48.728;9.256;2023-04-29T08:41:20;97051.81;;;15.44;100.00
12178;BME280;6152;48.728;9.256;2023-04-29T08:43:46;97047.13;;;15.59;100.00
12178;BME280;6152;48.728;9.256;2023-04-29T08:46:12;97043.88;;;15.66;100.00
12178;BME280;6152;48.728;9.256;2023-04-29T08:48:39;97049.94;;;15.99;100.00
12178;BME280;6152;48.728;9.256;2023-04-29T08:51:06;97038.94;;;16.35;100.00
12178;BME280;6152;48.728;9.256;2023-04-29T08:53:32;97035.13;;;16.70;100.00
12178;BME280;6152;48.728;9.256;2023-04-29T08:56:07;97042.16;;;16.99;100.00
12178;BME280;6152;48.728;9.256;2023-04-29T08:58:35;97048.50;;;16.97;100.00
12178;BME280;6152;48.728;9.256;2023-04-29T09:01:09;97047.03;;;16.74;100.00
12178;BME280;6152;48.728;9.256;2023-04-29T09:03:49;97047.66;;;16.36;100.00
12178;BME280;6152;48.728;9.256;2023-04-29T09:06:19;97047.25;;;16.10;100.00
12178;BME280;6152;48.728;9.256;2023-04-29T09:08:46;97045.28;;;15.71;100.00
12178;BME280;6152;48.728;9.256;2023-04-29T09:11:13;97047.25;;;15.46;100.00
12178;BME280;6152;48.728;9.256;2023-04-29T09:13:40;97055.06;;;15.26;100.00
12178;BME280;6152;48.728;9.256;2023-04-29T09:16:12;97055.25;;;14.91;100.00
12178;BME280;6152;48.728;9.256;2023-04-29T09:18:44;97053.59;;;14.79;100.00
12178;BME280;6152;48.728;9.256;2023-04-29T09:21:18;97054.28;;;15.03;100.00
12178;BME280;6152;48.728;9.256;2023-04-29T09:23:46;97057.59;;;15.27;100.00
12178;BME280;6152;48.728;9.256;2023-04-29T09:26:13;97045.03;;;15.74;100.00
12178;BME280;6152;48.728;9.256;2023-04-29T09:28:39;97061.69;;;15.52;100.00
12178;BME280;6152;48.728;9.256;2023-04-29T09:31:08;97061.13;;;15.37;100.00
12178;BME280;6152;48.728;9.256;2023-04-29T09:36:42;97064.41;;;15.61;100.00
12178;BME280;6152;48.728;9.256;2023-04-29T09:44:20;97062.00;;;16.11;100.00
12178;BME280;6152;48.728;9.256;2023-04-29T09:47:01;97062.16;;;16.09;100.00
12178;BME280;6152;48.728;9.256;2023-04-29T09:49:39;97071.75;;;16.61;100.00
12178;BME280;6152;48.728;9.256;2023-04-29T09:52:11;97062.50;;;17.76;100.00
12178;BME280;6152;48.728;9.256;2023-04-29T09:54:39;97067.69;;;18.72;100.00
12178;BME280;6152;48.728;9.256;2023-04-29T09:57:06;97071.16;;;18.99;100.00
12178;BME280;6152;48.728;9.256;2023-04-29T09:59:38;97058.34;;;19.59;99.09
12178;BME280;6152;48.728;9.256;2023-04-29T10:02:22;97059.69;;;20.59;88.23
12178;BME280;6152;48.728;9.256;2023-04-29T10:04:54;97056.84;;;21.12;81.28
12178;BME280;6152;48.728;9.256;2023-04-29T10:07:25;97056.00;;;21.12;76.01
12178;BME280;6152;48.728;9.256;2023-04-29T10:09:53;97055.00;;;20.10;80.24
12178;BME280;6152;48.728;9.256;2023-04-29T10:12:20;97054.81;;;19.86;89.24
12178;BME280;6152;48.728;9.256;2023-04-29T10:17:50;97051.81;;;20.67;76.27
12178;BME280;6152;48.728;9.256;2023-04-29T10:20:24;97050.31;;;20.99;80.19
12178;BME280;6152;48.728;9.256;2023-04-29T10:22:52;97055.50;;;21.83;63.67
12178;BME280;6152;48.728;9.256;2023-04-29T10:25:21;97047.47;;;21.26;64.50
12178;BME280;6152;48.728;9.256;2023-04-29T10:27:48;97039.88;;;21.39;60.82
12178;BME280;6152;48.728;9.256;2023-04-29T10:30:17;97039.97;;;22.44;56.02
12178;BME280;6152;48.728;9.256;2023-04-29T10:32:45;97038.66;;;23.03;55.39
12178;BME280;6152;48.728;9.256;2023-04-29T10:35:13;97038.50;;;25.16;47.72
12178;BME280;6152;48.728;9.256;2023-04-29T10:37:41;97029.16;;;25.92;43.22
12178;BME280;6152;48.728;9.256;2023-04-29T10:40:19;97016.69;;;25.27;43.42
12178;BME280;6152;48.728;9.256;2023-04-29T10:42:49;97014.03;;;25.27;44.08
12178;BME280;6152;48.728;9.256;2023-04-29T10:45:22;97018.41;;;25.49;43.36
12178;BME280;6152;48.728;9.256;2023-04-29T10:56:12;97022.13;;;23.24;47.05
12178;BME280;6152;48.728;9.256;2023-04-29T11:01:05;97017.22;;;25.52;44.09
12178;BME280;6152;48.728;9.256;2023-04-29T11:03:55;97019.94;;;25.94;42.04
12178;BME280;6152;48.728;9.256;2023-04-29T11:09:18;97018.97;;;25.59;42.78
12178;BME280;6152;48.728;9.256;2023-04-29T11:14:12;97017.00;;;22.92;46.70
12178;BME280;6152;48.728;9.256;2023-04-29T11:17:00;97006.19;;;22.14;49.34
12178;BME280;6152;48.728;9.256;2023-04-29T11:19:40;97007.19;;;21.89;53.63
12178;BME280;6152;48.728;9.256;2023-04-29T11:22:24;97010.16;;;21.78;52.50
12178;BME280;6152;48.728;9.256;2023-04-29T11:24:53;97009.44;;;22.48;52.40
12178;BME280;6152;48.728;9.256;2023-04-29T11:27:21;97012.66;;;24.06;46.25
12178;BME280;6152;48.728;9.256;2023-04-29T11:29:51;97004.94;;;23.74;45.53
12178;BME280;6152;48.728;9.256;2023-04-29T11:32:26;97005.47;;;24.96;43.31
12178;BME280;6152;48.728;9.256;2023-04-29T11:34:53;97001.91;;;25.39;42.15
12178;BME280;6152;48.728;9.256;2023-04-29T11:37:26;96996.72;;;25.17;41.29
12178;BME280;6152;48.728;9.256;2023-04-29T11:39:58;96998.72;;;25.14;41.52
12178;BME280;6152;48.728;9.256;2023-04-29T11:42:26;97002.88;;;23.84;43.13
12178;BME280;6152;48.728;9.256;2023-04-29T11:44:55;97012.09;;;23.11;44.70
12178;BME280;6152;48.728;9.256;2023-04-29T11:47:26;97008.09;;;22.60;46.94
12178;BME280;6152;48.728;9.256;2023-04-29T11:49:53;97008.47;;;23.43;45.66
12178;BME280;6152;48.728;9.256;2023-04-29T11:52:26;97001.25;;;23.97;44.69
12178;BME280;6152;48.728;9.256;2023-04-29T11:54:53;97006.34;;;24.74;42.07
12178;BME280;6152;48.728;9.256;2023-04-29T11:57:19;97002.28;;;23.74;44.19
12178;BME280;6152;48.728;9.256;2023-04-29T11:59:46;97007.44;;;22.67;46.31
12178;BME280;6152;48.728;9.256;2023-04-29T12:02:13;97004.53;;;21.97;48.19
12178;BME280;6152;48.728;9.256;2023-04-29T12:04:48;97013.47;;;22.04;47.48
12178;BME280;6152;48.728;9.256;2023-04-29T12:07:18;97008.81;;;21.74;48.72
12178;BME280;6152;48.728;9.256;2023-04-29T12:09:44;97005.19;;;22.23;48.90
12178;BME280;6152;48.728;9.256;2023-04-29T12:12:12;97007.03;;;21.98;48.62
12178;BME280;6152;48.728;9.256;2023-04-29T12:14:39;97012.25;;;21.34;51.62
12178;BME280;6152;48.728;9.256;2023-04-29T12:17:06;97008.53;;;20.77;53.88
12178;BME280;6152;48.728;9.256;2023-04-29T12:19:33;97016.38;;;20.60;57.44
12178;BME280;6152;48.728;9.256;2023-04-29T12:22:01;97018.50;;;20.13;64.01
12178;BME280;6152;48.728;9.256;2023-04-29T12:24:30;97017.75;;;19.60;66.30
12178;BME280;6152;48.728;9.256;2023-04-29T12:26:59;97019.81;;;19.39;70.06
12178;BME280;6152;48.728;9.256;2023-04-29T12:29:25;97017.38;;;19.55;70.89
12178;BME280;6152;48.728;9.256;2023-04-29T12:31:51;97024.31;;;19.11;75.72
12178;BME280;6152;48.728;9.256;2023-04-29T12:34:24;97018.72;;;19.41;73.90
12178;BME280;6152;48.728;9.256;2023-04-29T12:36:53;97023.56;;;19.63;70.89
12178;BME280;6152;48.728;9.256;2023-04-29T12:39:19;97024.97;;;19.40;71.12
12178;BME280;6152;48.728;9.256;2023-04-29T12:41:46;97027.06;;;19.37;71.22
12178;BME280;6152;48.728;9.256;2023-04-29T12:44:12;97022.84;;;18.99;75.29
12178;BME280;6152;48.728;9.256;2023-04-29T12:46:39;97028.69;;;18.93;74.42
12178;BME280;6152;48.728;9.256;2023-04-29T12:49:07;97029.13;;;18.61;73.82
12178;BME280;6152;48.728;9.256;2023-04-29T12:51:34;97035.09;;;17.69;82.81
12178;BME280;6152;48.728;9.256;2023-04-29T12:54:04;97032.81;;;17.26;85.08
12178;BME280;6152;48.728;9.256;2023-04-29T12:56:32;97035.59;;;17.43;85.61
12178;BME280;6152;48.728;9.256;2023-04-29T12:59:05;97027.06;;;17.70;83.20
12178;BME280;6152;48.728;9.256;2023-04-29T13:01:36;97030.78;;;17.87;83.05
12178;BME280;6152;48.728;9.256;2023-04-29T13:04:05;97031.16;;;18.11;81.14
12178;BME280;6152;48.728;9.256;2023-04-29T13:06:34;97037.72;;;17.69;85.18
12178;BME280;6152;48.728;9.256;2023-04-29T13:09:05;97031.34;;;17.61;84.97
12178;BME280;6152;48.728;9.256;2023-04-29T13:11:31;97024.53;;;17.49;86.56
12178;BME280;6152;48.728;9.256;2023-04-29T13:13:57;97030.06;;;17.37;88.72
12178;BME280;6152;48.728;9.256;2023-04-29T13:16:24;97027.00;;;17.41;90.23
12178;BME280;6152;48.728;9.256;2023-04-29T13:18:50;97028.63;;;17.13;94.43
12178;BME280;6152;48.728;9.256;2023-04-29T13:21:16;97024.47;;;17.11;93.68
12178;BME280;6152;48.728;9.256;2023-04-29T13:23:42;97038.88;;;17.16;95.62
12178;BME280;6152;48.728;9.256;2023-04-29T13:26:09;97037.53;;;17.41;93.83
12178;BME280;6152;48.728;9.256;2023-04-29T13:28:35;97025.19;;;17.51;93.36
12178;BME280;6152;48.728;9.256;2023-04-29T13:31:01;97034.25;;;17.58;90.69
12178;BME280;6152;48.728;9.256;2023-04-29T13:33:27;97033.38;;;17.48;92.24
12178;BME280;6152;48.728;9.256;2023-04-29T13:35:53;97043.63;;;17.51;88.90
12178;BME280;6152;48.728;9.256;2023-04-29T13:38:20;97045.00;;;17.55;85.87
12178;BME280;6152;48.728;9.256;2023-04-29T13:40:46;97042.47;;;17.06;91.30
12178;BME280;6152;48.728;9.256;2023-04-29T13:43:12;97046.97;;;16.94;93.57
12178;BME280;6152;48.728;9.256;2023-04-29T13:45:38;97045.38;;;17.03;96.29